createdAt,value
2023-03-20T00:02:07.013Z,97216.78
2023-03-20T00:04:34.182Z,97213.66
2023-03-20T00:07:00.904Z,97211.13
2023-03-20T00:09:28.369Z,97215.91
2023-03-20T00:11:55.967Z,97215.72
2023-03-20T00:14:24.690Z,97217.16
2023-03-20T00:16:52.079Z,97210.19
2023-03-20T00:19:32.109Z,97219.94
2023-03-20T00:21:58.837Z,97219.84
2023-03-20T00:24:25.519Z,97225.13
2023-03-20T00:26:53.211Z,97227.69
2023-03-20T00:29:31.015Z,97227.75
2023-03-20T00:31:58.483Z,97232.75
2023-03-20T00:34:29.063Z,97233.50
2023-03-20T00:36:56.433Z,97235.91
2023-03-20T00:39:23.835Z,97230.56
2023-03-20T00:41:57.705Z,97238.34
2023-03-20T00:44:50.410Z,97239.19
2023-03-20T00:47:20.673Z,97233.09
2023-03-20T00:49:50.768Z,97235.53
2023-03-20T00:52:18.606Z,97239.09
2023-03-20T00:54:45.474Z,97231.88
2023-03-20T00:57:38.411Z,97237.72
2023-03-20T01:00:07.464Z,97237.72
2023-03-20T01:02:55.755Z,97235.91
2023-03-20T01:05:25.802Z,97241.03
2023-03-20T01:07:54.055Z,97245.25
2023-03-20T01:10:27.914Z,97249.66
2023-03-20T01:12:56.495Z,97245.34
2023-03-20T01:15:27.489Z,97247.78
2023-03-20T01:17:54.090Z,97248.63
2023-03-20T01:20:27.424Z,97248.63
2023-03-20T01:22:54.628Z,97259.31
2023-03-20T01:25:21.414Z,97261.28
2023-03-20T01:27:53.167Z,97261.75
2023-03-20T01:30:26.855Z,97260.03
2023-03-20T01:32:54.289Z,97261.91
2023-03-20T01:35:24.146Z,97270.72
2023-03-20T01:37:52.284Z,97260.22
2023-03-20T01:40:33.748Z,97264.63
2023-03-20T01:43:03.360Z,97263.09
2023-03-20T01:45:36.129Z,97269.22
2023-03-20T01:48:17.030Z,97271.88
2023-03-20T01:50:43.707Z,97278.34
2023-03-20T01:53:26.153Z,97273.72
2023-03-20T01:55:59.766Z,97273.53
2023-03-20T01:58:38.977Z,97280.25
2023-03-20T02:01:09.211Z,97278.28
2023-03-20T02:03:36.616Z,97279.56
2023-03-20T02:06:32.490Z,97276.59
2023-03-20T02:09:16.730Z,97275.53
2023-03-20T02:11:46.383Z,97282.13
2023-03-20T02:14:14.142Z,97285.75
2023-03-20T02:16:59.305Z,97281.72
2023-03-20T02:20:14.586Z,97282.66
2023-03-20T02:23:23.259Z,97277.63
2023-03-20T02:26:15.543Z,97271.31
2023-03-20T02:29:16.876Z,97271.63
2023-03-20T02:32:05.062Z,97270.44
2023-03-20T02:35:06.743Z,97258.16
2023-03-20T02:38:19.798Z,97247.56
2023-03-20T02:41:09.904Z,97245.97
2023-03-20T02:43:48.615Z,97249.34
2023-03-20T02:46:39.819Z,97252.91
2023-03-20T02:49:28.292Z,97238.25
2023-03-20T02:52:05.745Z,97239.03
2023-03-20T02:54:50.923Z,97243.84
2023-03-20T02:57:36.646Z,97253.34
2023-03-20T03:00:14.184Z,97253.84
2023-03-20T03:03:19.553Z,97262.66
2023-03-20T03:06:06.035Z,97269.81
2023-03-20T03:08:39.343Z,97265.41
2023-03-20T03:11:08.673Z,97270.59
2023-03-20T03:13:42.739Z,97264.44
2023-03-20T03:16:14.465Z,97273.28
2023-03-20T03:18:43.218Z,97288.09
2023-03-20T03:21:16.382Z,97289.22
2023-03-20T03:23:48.735Z,97287.59
2023-03-20T03:26:23.802Z,97295.47
2023-03-20T03:29:04.798Z,97291.31
2023-03-20T03:31:32.795Z,97281.66
2023-03-20T03:34:01.420Z,97290.38
2023-03-20T03:36:56.117Z,97287.16
2023-03-20T03:39:52.362Z,97291.56
2023-03-20T03:42:39.588Z,97295.28
2023-03-20T03:45:17.361Z,97293.34
2023-03-20T03:47:52.143Z,97276.75
2023-03-20T03:50:29.626Z,97274.13
2023-03-20T03:53:02.858Z,97278.28
2023-03-20T03:55:37.555Z,97287.94
2023-03-20T03:58:09.882Z,97288.25
2023-03-20T04:00:38.888Z,97287.66
2023-03-20T04:03:07.376Z,97298.06
2023-03-20T04:05:37.730Z,97294.59
2023-03-20T04:08:06.396Z,97301.53
2023-03-20T04:10:33.371Z,97299.00
2023-03-20T04:13:00.407Z,97297.31
2023-03-20T04:15:27.918Z,97296.28
2023-03-20T04:17:55.245Z,97293.84
2023-03-20T04:20:23.539Z,97297.44
2023-03-20T04:22:50.524Z,97301.84
2023-03-20T04:25:21.280Z,97298.38
2023-03-20T04:27:49.340Z,97305.31
2023-03-20T04:30:38.860Z,97312.34
2023-03-20T04:33:14.986Z,97302.03
2023-03-20T04:36:12.444Z,97296.94
2023-03-20T04:38:40.443Z,97289.97
2023-03-20T04:41:08.821Z,97296.06
2023-03-20T04:43:35.975Z,97293.78
2023-03-20T04:46:02.761Z,97299.34
2023-03-20T04:48:29.706Z,97288.69
2023-03-20T04:50:56.700Z,97304.19
2023-03-20T04:53:30.066Z,97293.88
2023-03-20T04:55:56.714Z,97293.34
2023-03-20T04:58:23.731Z,97303.81
2023-03-20T05:00:50.770Z,97300.03
2023-03-20T05:03:17.594Z,97307.56
2023-03-20T05:05:44.401Z,97317.22
2023-03-20T05:08:11.359Z,97312.81
2023-03-20T05:10:38.815Z,97317.41
2023-03-20T05:13:34.592Z,97313.66
2023-03-20T05:16:16.232Z,97313.66
2023-03-20T05:19:15.387Z,97318.06
2023-03-20T05:22:01.214Z,97315.31
2023-03-20T05:24:50.369Z,97312.59
2023-03-20T05:27:32.686Z,97306.41
2023-03-20T05:30:19.696Z,97314.69
2023-03-20T05:33:15.615Z,97320.56
2023-03-20T05:35:54.139Z,97309.44
2023-03-20T05:38:31.923Z,97314.69
2023-03-20T05:41:25.527Z,97316.91
2023-03-20T05:44:04.995Z,97311.41
2023-03-20T05:46:54.502Z,97313.09
2023-03-20T05:49:53.226Z,97313.06
2023-03-20T05:52:36.994Z,97309.56
2023-03-20T05:55:10.898Z,97310.34
2023-03-20T05:57:50.759Z,97312.88
2023-03-20T06:00:27.090Z,97314.66
2023-03-20T06:03:13.965Z,97317.09
2023-03-20T06:05:55.692Z,97317.91
2023-03-20T06:08:22.320Z,97319.50
2023-03-20T06:10:52.503Z,97317.81
2023-03-20T06:13:19.940Z,97314.03
2023-03-20T06:15:46.676Z,97310.91
2023-03-20T06:18:16.691Z,97312.81
2023-03-20T06:20:43.429Z,97302.50
2023-03-20T06:23:10.074Z,97292.78
2023-03-20T06:25:36.825Z,97294.91
2023-03-20T06:28:04.083Z,97289.25
2023-03-20T06:30:31.017Z,97283.53
2023-03-20T06:32:58.570Z,97288.09
2023-03-20T06:35:33.901Z,97290.00
2023-03-20T06:38:01.340Z,97287.88
2023-03-20T06:40:28.221Z,97295.59
2023-03-20T06:42:55.543Z,97296.25
2023-03-20T06:45:24.571Z,97295.31
2023-03-20T06:47:59.756Z,97303.47
2023-03-20T06:50:27.201Z,97312.78
2023-03-20T06:52:54.027Z,97302.91
2023-03-20T06:55:47.081Z,97317.94
2023-03-20T06:58:13.676Z,97319.03
2023-03-20T07:00:40.639Z,97314.66
2023-03-20T07:03:08.707Z,97311.38
2023-03-20T07:05:35.758Z,97319.59
2023-03-20T07:08:07.646Z,97323.34
2023-03-20T07:10:35.746Z,97316.69
2023-03-20T07:13:02.393Z,97329.66
2023-03-20T07:15:30.176Z,97324.09
2023-03-20T07:17:57.310Z,97327.38
2023-03-20T07:20:26.595Z,97326.97
2023-03-20T07:22:53.628Z,97326.97
2023-03-20T07:25:41.294Z,97326.72
2023-03-20T07:28:11.641Z,97314.91
2023-03-20T07:30:42.010Z,97321.34
2023-03-20T07:33:09.382Z,97321.22
2023-03-20T07:35:36.492Z,97312.13
2023-03-20T07:38:03.402Z,97311.69
2023-03-20T07:40:30.724Z,97318.06
2023-03-20T07:43:01.943Z,97325.97
2023-03-20T07:46:07.898Z,97323.91
2023-03-20T07:48:36.809Z,97313.94
2023-03-20T07:51:03.820Z,97323.16
2023-03-20T07:53:30.525Z,97333.97
2023-03-20T07:55:57.146Z,97335.09
2023-03-20T07:58:23.746Z,97334.59
2023-03-20T08:00:50.546Z,97337.28
2023-03-20T08:03:17.390Z,97342.53
2023-03-20T08:05:45.853Z,97346.75
2023-03-20T08:08:13.723Z,97362.84
2023-03-20T08:10:40.507Z,97362.34
2023-03-20T08:13:07.314Z,97371.09
2023-03-20T08:15:34.082Z,97365.09
2023-03-20T08:18:00.844Z,97363.66
2023-03-20T08:20:27.642Z,97364.13
2023-03-20T08:22:54.193Z,97371.19
2023-03-20T08:25:20.785Z,97373.19
2023-03-20T08:27:48.719Z,97376.91
2023-03-20T08:30:15.981Z,97374.53
2023-03-20T08:32:42.588Z,97374.97
2023-03-20T08:35:22.035Z,97368.19
2023-03-20T08:37:56.236Z,97380.81
2023-03-20T08:40:23.043Z,97365.75
2023-03-20T08:42:49.652Z,97365.00
2023-03-20T08:45:17.086Z,97369.66
2023-03-20T08:47:43.747Z,97361.88
2023-03-20T08:50:11.230Z,97356.50
2023-03-20T08:52:37.823Z,97364.00
2023-03-20T08:55:04.772Z,97368.97
2023-03-20T08:57:31.343Z,97357.88
2023-03-20T08:59:58.054Z,97357.69
2023-03-20T09:02:36.120Z,97367.06
2023-03-20T09:05:03.075Z,97366.78
2023-03-20T09:07:29.781Z,97360.06
2023-03-20T09:09:56.351Z,97369.47
2023-03-20T09:12:22.952Z,97369.03
2023-03-20T09:14:49.746Z,97374.63
2023-03-20T09:17:16.807Z,97374.84
2023-03-20T09:19:44.738Z,97376.41
2023-03-20T09:22:15.415Z,97380.97
2023-03-20T09:24:41.973Z,97377.91
2023-03-20T09:27:08.654Z,97382.53
2023-03-20T09:29:35.731Z,97389.00
2023-03-20T09:32:02.396Z,97399.31
2023-03-20T09:34:29.482Z,97401.72
2023-03-20T09:36:56.199Z,97409.81
2023-03-20T09:39:23.321Z,97407.75
2023-03-20T09:41:57.245Z,97407.66
2023-03-20T09:45:03.559Z,97420.03
2023-03-20T09:47:47.001Z,97419.34
2023-03-20T09:50:26.028Z,97417.25
2023-03-20T09:53:38.669Z,97412.59
2023-03-20T09:56:10.782Z,97419.16
2023-03-20T09:58:38.602Z,97417.16
2023-03-20T10:01:08.426Z,97410.94
2023-03-20T10:03:51.135Z,97412.44
2023-03-20T10:06:18.364Z,97416.06
2023-03-20T10:08:46.848Z,97411.38
2023-03-20T10:11:46.512Z,97414.41
2023-03-20T10:14:37.975Z,97406.41
2023-03-20T10:17:19.545Z,97403.47
2023-03-20T10:19:49.074Z,97403.25
2023-03-20T10:22:15.623Z,97402.19
2023-03-20T10:24:49.799Z,97401.88
2023-03-20T10:27:28.223Z,97404.09
2023-03-20T10:30:13.840Z,97410.38
2023-03-20T10:32:52.736Z,97411.38
2023-03-20T10:35:26.317Z,97411.16
2023-03-20T10:38:15.154Z,97403.06
2023-03-20T10:40:43.432Z,97408.63
2023-03-20T10:43:21.844Z,97406.56
2023-03-20T10:45:53.955Z,97394.69
2023-03-20T10:48:27.116Z,97398.41
2023-03-20T10:51:00.401Z,97401.88
2023-03-20T10:53:32.645Z,97387.44
2023-03-20T10:56:05.313Z,97397.44
2023-03-20T10:58:37.594Z,97391.66
2023-03-20T11:01:04.713Z,97391.78
2023-03-20T11:03:32.835Z,97384.81
2023-03-20T11:06:09.753Z,97377.91
2023-03-20T11:08:41.164Z,97380.94
2023-03-20T11:11:08.407Z,97384.22
2023-03-20T11:13:41.932Z,97387.63
2023-03-20T11:16:23.117Z,97374.75
2023-03-20T11:18:52.236Z,97380.66
2023-03-20T11:21:27.868Z,97373.28
2023-03-20T11:23:55.354Z,97374.31
2023-03-20T11:26:34.116Z,97376.28
2023-03-20T11:29:01.100Z,97371.13
2023-03-20T11:31:37.095Z,97369.88
2023-03-20T11:34:16.017Z,97360.38
2023-03-20T11:37:10.553Z,97363.84
2023-03-20T11:39:39.870Z,97361.31
2023-03-20T11:42:24.102Z,97362.78
2023-03-20T11:45:01.483Z,97366.06
2023-03-20T11:47:32.674Z,97363.97
2023-03-20T11:50:01.629Z,97363.66
2023-03-20T11:52:33.301Z,97359.81
2023-03-20T11:55:03.313Z,97361.31
2023-03-20T11:57:31.969Z,97356.66
2023-03-20T12:00:02.540Z,97360.47
2023-03-20T12:02:51.460Z,97368.59
2023-03-20T12:05:29.994Z,97355.94
2023-03-20T12:08:01.013Z,97357.19
2023-03-20T12:10:32.948Z,97355.31
2023-03-20T12:13:05.496Z,97355.94
2023-03-20T12:15:37.066Z,97356.56
2023-03-20T12:18:21.487Z,97351.91
2023-03-20T12:21:06.555Z,97345.56
2023-03-20T12:23:33.153Z,97340.59
2023-03-20T12:26:11.018Z,97348.84
2023-03-20T12:28:48.311Z,97339.63
2023-03-20T12:31:26.569Z,97337.75
2023-03-20T12:33:53.358Z,97333.19
2023-03-20T12:36:31.731Z,97339.44
2023-03-20T12:38:59.095Z,97343.44
2023-03-20T12:41:30.572Z,97336.91
2023-03-20T12:44:06.105Z,97320.63
2023-03-20T12:46:56.127Z,97332.75
2023-03-20T12:49:43.144Z,97329.22
2023-03-20T12:52:45.895Z,97343.16
2023-03-20T12:55:31.041Z,97332.03
2023-03-20T12:58:07.246Z,97315.69
2023-03-20T13:00:40.445Z,97323.53
2023-03-20T13:03:33.246Z,97321.47
2023-03-20T13:06:15.551Z,97323.72
2023-03-20T13:09:02.577Z,97305.94
2023-03-20T13:11:55.676Z,97307.44
2023-03-20T13:14:34.351Z,97304.66
2023-03-20T13:17:20.455Z,97303.22
2023-03-20T13:19:55.652Z,97310.34
2023-03-20T13:22:34.374Z,97306.38
2023-03-20T13:25:11.396Z,97305.53
2023-03-20T13:27:57.385Z,97295.03
2023-03-20T13:30:33.363Z,97294.50
2023-03-20T13:33:18.875Z,97299.41
2023-03-20T13:35:59.075Z,97305.28
2023-03-20T13:38:31.444Z,97294.47
2023-03-20T13:41:04.201Z,97291.91
2023-03-20T13:43:34.471Z,97294.13
2023-03-20T13:46:09.892Z,97286.38
2023-03-20T13:48:38.929Z,97282.34
2023-03-20T13:51:11.634Z,97277.69
2023-03-20T13:53:47.426Z,97271.59
2023-03-20T13:56:44.282Z,97277.19
2023-03-20T13:59:29.846Z,97275.19
2023-03-20T14:02:08.584Z,97266.63
2023-03-20T14:04:35.469Z,97273.53
2023-03-20T14:07:02.174Z,97270.88
2023-03-20T14:09:37.009Z,97277.81
2023-03-20T14:12:08.782Z,97290.81
2023-03-20T14:14:56.434Z,97290.66
2023-03-20T14:17:32.496Z,97289.59
2023-03-20T14:20:12.644Z,97282.75
2023-03-20T14:22:43.571Z,97288.25
2023-03-20T14:25:18.341Z,97277.75
2023-03-20T14:28:23.184Z,97279.53
2023-03-20T14:30:51.403Z,97280.91
2023-03-20T14:33:18.840Z,97288.25
2023-03-20T14:35:50.409Z,97272.19
2023-03-20T14:38:30.715Z,97284.22
2023-03-20T14:41:04.826Z,97276.97
2023-03-20T14:43:45.647Z,97275.59
2023-03-20T14:46:30.610Z,97275.16
2023-03-20T14:48:57.270Z,97279.19
2023-03-20T14:51:56.698Z,97279.19
2023-03-20T14:54:29.567Z,97276.00
2023-03-20T14:57:07.993Z,97272.53
2023-03-20T14:59:34.849Z,97275.94
2023-03-20T15:02:03.155Z,97264.72
2023-03-20T15:04:37.704Z,97289.06
2023-03-20T15:07:13.507Z,97286.47
2023-03-20T15:09:44.051Z,97281.28
2023-03-20T15:12:15.244Z,97282.25
2023-03-20T15:15:00.866Z,97285.91
2023-03-20T15:17:36.296Z,97282.06
2023-03-20T15:20:10.080Z,97280.56
2023-03-20T15:22:48.361Z,97279.19
2023-03-20T15:25:19.554Z,97279.19
2023-03-20T15:27:47.264Z,97274.19
2023-03-20T15:30:19.785Z,97271.66
2023-03-20T15:32:49.285Z,97276.00
2023-03-20T15:35:20.980Z,97275.53
2023-03-20T15:37:49.690Z,97278.25
2023-03-20T15:40:24.426Z,97280.44
2023-03-20T15:43:04.358Z,97273.88
2023-03-20T15:45:38.500Z,97277.00
2023-03-20T15:48:06.868Z,97282.13
2023-03-20T15:50:38.644Z,97279.22
2023-03-20T15:53:11.091Z,97263.25
2023-03-20T15:55:38.467Z,97261.78
2023-03-20T15:58:05.395Z,97260.28
2023-03-20T16:00:34.020Z,97265.28
2023-03-20T16:03:08.024Z,97263.34
2023-03-20T16:05:35.776Z,97261.75
2023-03-20T16:08:14.914Z,97263.53
2023-03-20T16:10:43.301Z,97269.09
2023-03-20T16:13:18.846Z,97267.38
2023-03-20T16:15:46.493Z,97264.28
2023-03-20T16:18:16.619Z,97258.00
2023-03-20T16:20:57.974Z,97267.03
2023-03-20T16:23:33.917Z,97256.97
2023-03-20T16:26:01.130Z,97259.88
2023-03-20T16:28:28.693Z,97259.50
2023-03-20T16:31:11.755Z,97260.16
2023-03-20T16:33:40.322Z,97262.31
2023-03-20T16:36:07.774Z,97265.34
2023-03-20T16:38:37.415Z,97263.72
2023-03-20T16:41:33.596Z,97264.38
2023-03-20T16:44:08.126Z,97264.00
2023-03-20T16:46:34.787Z,97267.56
2023-03-20T16:49:29.644Z,97261.53
2023-03-20T16:51:59.701Z,97266.72
2023-03-20T16:54:31.117Z,97267.50
2023-03-20T16:56:58.106Z,97263.00
2023-03-20T16:59:26.001Z,97260.06
2023-03-20T17:01:54.278Z,97266.56
2023-03-20T17:04:33.782Z,97263.94
2023-03-20T17:07:06.622Z,97267.97
2023-03-20T17:09:33.523Z,97262.50
2023-03-20T17:12:03.434Z,97261.97
2023-03-20T17:14:30.090Z,97259.59
2023-03-20T17:16:59.584Z,97256.28
2023-03-20T17:19:26.228Z,97248.59
2023-03-20T17:21:53.238Z,97247.06
2023-03-20T17:24:20.018Z,97258.75
2023-03-20T17:26:54.013Z,97247.66
2023-03-20T17:29:20.784Z,97252.25
2023-03-20T17:31:47.425Z,97251.91
2023-03-20T17:34:14.950Z,97256.19
2023-03-20T17:36:42.049Z,97259.72
2023-03-20T17:39:16.907Z,97256.31
2023-03-20T17:41:43.656Z,97255.50
2023-03-20T17:44:10.509Z,97253.03
2023-03-20T17:46:53.904Z,97258.53
2023-03-20T17:49:27.412Z,97263.03
2023-03-20T17:51:54.749Z,97258.63
2023-03-20T17:54:21.612Z,97262.81
2023-03-20T17:56:48.244Z,97261.97
2023-03-20T17:59:15.126Z,97262.19
2023-03-20T18:01:42.618Z,97269.91
2023-03-20T18:04:20.934Z,97264.72
2023-03-20T18:06:48.973Z,97264.72
2023-03-20T18:09:16.137Z,97268.97
2023-03-20T18:11:42.747Z,97269.75
2023-03-20T18:14:12.236Z,97260.19
2023-03-20T18:16:38.983Z,97260.09
2023-03-20T18:19:05.689Z,97263.97
2023-03-20T18:21:32.324Z,97257.13
2023-03-20T18:23:58.961Z,97258.63
2023-03-20T18:26:27.472Z,97254.97
2023-03-20T18:28:55.332Z,97262.81
2023-03-20T18:31:22.668Z,97266.28
2023-03-20T18:33:51.661Z,97262.84
2023-03-20T18:36:23.896Z,97269.91
2023-03-20T18:38:51.900Z,97268.06
2023-03-20T18:41:18.901Z,97270.09
2023-03-20T18:43:48.521Z,97273.38
2023-03-20T18:46:18.135Z,97275.94
2023-03-20T18:48:46.203Z,97273.56
2023-03-20T18:51:13.735Z,97272.94
2023-03-20T18:53:41.196Z,97273.13
2023-03-20T18:56:16.311Z,97278.38
2023-03-20T18:58:43.692Z,97273.13
2023-03-20T19:01:12.785Z,97275.09
2023-03-20T19:03:42.416Z,97271.63
2023-03-20T19:06:15.387Z,97277.81
2023-03-20T19:08:42.990Z,97277.22
2023-03-20T19:11:17.288Z,97276.47
2023-03-20T19:13:49.219Z,97280.88
2023-03-20T19:16:18.857Z,97274.16
2023-03-20T19:18:45.952Z,97274.25
2023-03-20T19:21:12.518Z,97275.19
2023-03-20T19:23:39.090Z,97275.28
2023-03-20T19:26:06.307Z,97263.16
2023-03-20T19:28:40.746Z,97268.66
2023-03-20T19:31:09.478Z,97273.91
2023-03-20T19:33:38.448Z,97268.22
2023-03-20T19:36:06.589Z,97267.97
2023-03-20T19:38:34.316Z,97265.19
2023-03-20T19:41:02.607Z,97261.72
2023-03-20T19:43:29.614Z,97262.47
2023-03-20T19:45:59.005Z,97258.25
2023-03-20T19:48:46.141Z,97251.13
2023-03-20T19:51:26.531Z,97249.94
2023-03-20T19:53:54.268Z,97247.47
2023-03-20T19:56:22.580Z,97252.91
2023-03-20T19:58:49.918Z,97250.38
2023-03-20T20:01:19.721Z,97245.88
2023-03-20T20:03:46.823Z,97248.31
2023-03-20T20:06:13.882Z,97253.56
2023-03-20T20:08:49.417Z,97254.34
2023-03-20T20:11:20.723Z,97249.44
2023-03-20T20:14:05.199Z,97249.25
2023-03-20T20:16:35.376Z,97247.88
2023-03-20T20:19:02.522Z,97244.84
2023-03-20T20:24:18.969Z,97247.47
2023-03-20T20:27:00.060Z,97251.78
2023-03-20T20:29:39.604Z,97249.94
2023-03-20T20:32:06.345Z,97250.63
2023-03-20T20:35:30.723Z,97252.22
2023-03-20T20:38:09.064Z,97260.03
2023-03-20T20:40:07.319Z,97257.47
2023-03-20T20:42:33.911Z,97260.19
2023-03-20T20:45:00.608Z,97260.44
2023-03-20T20:47:27.281Z,97258.81
2023-03-20T20:49:53.984Z,97253.56
2023-03-20T20:52:20.786Z,97257.75
2023-03-20T20:54:48.165Z,97254.94
2023-03-20T20:57:15.159Z,97256.81
2023-03-20T20:59:41.841Z,97256.81
2023-03-20T21:02:15.438Z,97256.03
2023-03-20T21:04:43.699Z,97248.75
2023-03-20T21:07:13.171Z,97260.88
2023-03-20T21:09:40.987Z,97265.19
2023-03-20T21:12:09.935Z,97265.94
2023-03-20T21:14:37.365Z,97261.53
2023-03-20T21:17:06.176Z,97272.06
2023-03-20T21:19:36.059Z,97260.78
2023-03-20T21:22:03.473Z,97263.31
2023-03-20T21:24:33.882Z,97265.09
2023-03-20T21:27:11.455Z,97258.91
2023-03-20T21:29:38.765Z,97267.72
2023-03-20T21:32:06.766Z,97272.81
2023-03-20T21:34:34.040Z,97264.94
2023-03-20T21:37:29.537Z,97270.88
2023-03-20T21:39:51.467Z,97269.94
2023-03-20T21:42:19.151Z,97266.56
2023-03-20T21:45:26.527Z,97262.06
2023-03-20T21:48:23.559Z,97255.19
2023-03-20T21:51:02.927Z,97263.84
2023-03-20T21:53:49.580Z,97270.69
2023-03-20T21:56:40.110Z,97261.69
2023-03-20T22:19:00.386Z,97270.09
2023-03-20T22:24:36.698Z,97276.19
2023-03-20T22:27:18.733Z,97272.63
2023-03-20T22:35:46.866Z,97265.44
2023-03-20T22:38:21.812Z,97268.91
2023-03-20T22:41:13.283Z,97264.50
2023-03-20T22:46:16.750Z,97265.25
2023-03-20T22:48:45.422Z,97258.31
2023-03-20T22:51:13.610Z,97254.84
2023-03-20T22:53:40.262Z,97257.38
2023-03-20T22:56:07.513Z,97247.63
2023-03-20T22:58:34.135Z,97245.78
2023-03-20T23:01:01.032Z,97248.31
2023-03-20T23:03:41.048Z,97248.41
2023-03-20T23:06:09.210Z,97244.94
2023-03-20T23:08:47.981Z,97237.91
2023-03-20T23:11:17.712Z,97238.16
2023-03-20T23:13:45.248Z,97242.56
2023-03-20T23:16:12.299Z,97236.69
2023-03-20T23:18:39.195Z,97235.94
2023-03-20T23:21:06.303Z,97234.88
2023-03-20T23:23:32.907Z,97235.00
2023-03-20T23:26:07.082Z,97237.81
2023-03-20T23:28:35.481Z,97240.44
2023-03-20T23:31:10.382Z,97233.75
2023-03-20T23:33:38.550Z,97238.16
2023-03-20T23:36:18.746Z,97239.00
2023-03-20T23:38:51.646Z,97228.88
2023-03-20T23:41:19.013Z,97233.41
2023-03-20T23:43:45.800Z,97231.72
2023-03-20T23:46:14.765Z,97231.22
2023-03-20T23:48:41.470Z,97234.69
2023-03-20T23:51:08.239Z,97221.50
2023-03-20T23:53:34.896Z,97220.66
2023-03-20T23:56:01.732Z,97219.03
2023-03-20T23:58:28.462Z,97213.88
